createdAt,value
2017-10-15T00:00:24.979Z,14.01
2017-10-15T00:01:24.974Z,14.00
2017-10-15T00:02:24.975Z,13.92
2017-10-15T00:03:24.991Z,13.90
2017-10-15T00:04:24.985Z,13.95
2017-10-15T00:05:24.993Z,14.03
2017-10-15T00:06:24.992Z,13.95
2017-10-15T00:07:25.001Z,13.96
2017-10-15T00:08:25.000Z,13.95
2017-10-15T00:09:25.024Z,14.03
2017-10-15T00:10:25.019Z,13.92
2017-10-15T00:11:25.017Z,14.04
2017-10-15T00:12:25.018Z,14.05
2017-10-15T00:13:25.023Z,14.01
2017-10-15T00:14:25.032Z,14.00
2017-10-15T00:15:25.032Z,13.96
2017-10-15T00:16:25.037Z,13.95
2017-10-15T00:17:25.041Z,14.05
2017-10-15T00:18:25.063Z,14.08
2017-10-15T00:19:25.051Z,14.01
2017-10-15T00:20:25.052Z,14.05
2017-10-15T00:21:25.058Z,14.00
2017-10-15T00:22:25.059Z,14.05
2017-10-15T00:23:25.067Z,14.08
2017-10-15T00:24:25.072Z,14.00
2017-10-15T00:25:25.075Z,14.01
2017-10-15T00:26:25.078Z,13.96
2017-10-15T00:27:25.083Z,13.97
2017-10-15T00:28:25.091Z,13.93
2017-10-15T00:29:25.090Z,13.95
2017-10-15T00:30:25.097Z,14.04
2017-10-15T00:31:25.096Z,14.01
2017-10-15T00:32:25.105Z,13.96
2017-10-15T00:33:25.109Z,13.92
2017-10-15T00:34:25.113Z,13.97
2017-10-15T00:35:25.117Z,14.00
2017-10-15T00:36:25.123Z,13.95
2017-10-15T00:37:25.129Z,13.92
2017-10-15T00:38:25.140Z,13.95
2017-10-15T00:39:25.135Z,13.92
2017-10-15T00:40:25.150Z,13.93
2017-10-15T00:41:25.144Z,13.86
2017-10-15T00:42:25.146Z,13.96
2017-10-15T00:43:25.179Z,13.90
2017-10-15T00:44:25.152Z,13.93
2017-10-15T00:45:25.163Z,13.82
2017-10-15T00:46:25.164Z,13.86
2017-10-15T00:47:25.170Z,13.90
2017-10-15T00:48:25.171Z,13.82
2017-10-15T00:49:25.174Z,13.85
2017-10-15T00:50:25.188Z,13.83
2017-10-15T00:51:25.182Z,13.85
2017-10-15T00:52:25.198Z,13.82
2017-10-15T00:53:25.192Z,13.83
2017-10-15T00:54:25.200Z,13.82
2017-10-15T00:55:25.200Z,13.82
2017-10-15T00:56:25.207Z,13.83
2017-10-15T00:57:25.211Z,13.86
2017-10-15T00:58:25.217Z,13.89
2017-10-15T00:59:25.219Z,13.85
2017-10-15T01:00:25.227Z,13.86
2017-10-15T01:01:25.230Z,13.78
2017-10-15T01:02:25.236Z,13.83
2017-10-15T01:03:25.233Z,13.82
2017-10-15T01:04:25.244Z,13.86
2017-10-15T01:05:25.241Z,13.77
2017-10-15T01:06:25.246Z,13.74
2017-10-15T01:07:25.259Z,13.72
2017-10-15T01:08:25.259Z,13.68
2017-10-15T01:09:25.260Z,13.75
2017-10-15T01:10:25.265Z,13.71
2017-10-15T01:11:25.263Z,13.65
2017-10-15T01:12:25.265Z,13.67
2017-10-15T01:13:25.275Z,13.65
2017-10-15T01:14:25.283Z,13.59
2017-10-15T01:15:25.283Z,13.55
2017-10-15T01:16:25.291Z,13.63
2017-10-15T01:17:25.293Z,13.47
2017-10-15T01:18:25.295Z,13.57
2017-10-15T01:19:25.300Z,13.55
2017-10-15T01:20:25.326Z,13.47
2017-10-15T01:21:25.308Z,13.45
2017-10-15T01:22:25.315Z,13.39
2017-10-15T01:23:25.319Z,13.41
2017-10-15T01:24:25.331Z,13.38
2017-10-15T01:25:25.331Z,13.37
2017-10-15T01:26:25.331Z,13.33
2017-10-15T01:27:25.333Z,13.26
2017-10-15T01:28:25.342Z,13.24
2017-10-15T01:29:25.343Z,13.29
2017-10-15T01:30:25.351Z,13.29
2017-10-15T01:31:25.349Z,13.22
2017-10-15T01:32:25.350Z,13.24
2017-10-15T01:33:25.354Z,13.12
2017-10-15T01:34:25.358Z,13.18
2017-10-15T01:35:25.366Z,13.15
2017-10-15T01:36:25.369Z,13.13
2017-10-15T01:37:25.374Z,13.11
2017-10-15T01:38:25.376Z,13.16
2017-10-15T01:39:25.382Z,13.05
2017-10-15T01:40:25.386Z,13.03
2017-10-15T01:41:25.393Z,12.97
2017-10-15T01:42:25.389Z,12.93
2017-10-15T01:43:25.392Z,12.93
2017-10-15T01:44:25.401Z,12.87
2017-10-15T01:45:25.407Z,12.80
2017-10-15T01:46:25.407Z,12.80
2017-10-15T01:47:25.409Z,12.87
2017-10-15T01:48:25.419Z,12.79
2017-10-15T01:49:25.413Z,12.78
2017-10-15T01:50:25.423Z,12.78
2017-10-15T01:51:25.425Z,12.71
2017-10-15T01:52:25.462Z,12.73
2017-10-15T01:53:25.435Z,12.71
2017-10-15T01:54:25.439Z,12.68
2017-10-15T01:55:25.440Z,12.72
2017-10-15T01:56:25.442Z,12.61
2017-10-15T01:57:25.443Z,12.65
2017-10-15T01:58:25.450Z,12.60
2017-10-15T01:59:25.458Z,12.68
2017-10-15T02:00:25.457Z,12.61
2017-10-15T02:01:25.465Z,12.64
2017-10-15T02:02:25.464Z,12.57
2017-10-15T02:03:25.467Z,12.55
2017-10-15T02:04:25.472Z,12.58
2017-10-15T02:05:25.474Z,12.45
2017-10-15T02:06:25.492Z,12.42
2017-10-15T02:07:25.483Z,12.45
2017-10-15T02:08:25.484Z,12.45
2017-10-15T02:09:25.492Z,12.46
2017-10-15T02:10:25.501Z,12.43
2017-10-15T02:11:25.501Z,12.42
2017-10-15T02:12:25.505Z,12.53
2017-10-15T02:13:25.609Z,12.40
2017-10-15T02:14:25.514Z,12.55
2017-10-15T02:15:25.511Z,12.46
2017-10-15T02:16:25.512Z,12.46
2017-10-15T02:17:25.530Z,12.46
2017-10-15T02:18:25.524Z,12.47
2017-10-15T02:19:25.525Z,12.57
2017-10-15T02:20:25.527Z,12.58
2017-10-15T02:21:25.533Z,12.57
2017-10-15T02:22:25.533Z,12.61
2017-10-15T02:23:25.537Z,12.58
2017-10-15T02:24:25.542Z,12.54
2017-10-15T02:25:25.542Z,12.58
2017-10-15T02:26:25.555Z,12.54
2017-10-15T02:27:25.552Z,12.64
2017-10-15T02:28:25.557Z,12.64
2017-10-15T02:29:25.555Z,12.58
2017-10-15T02:30:25.563Z,12.71
2017-10-15T02:31:25.568Z,12.69
2017-10-15T02:32:25.574Z,12.72
2017-10-15T02:33:25.571Z,12.75
2017-10-15T02:34:25.576Z,12.76
2017-10-15T02:35:25.577Z,12.73
2017-10-15T02:36:25.592Z,12.76
2017-10-15T02:37:25.586Z,12.79
2017-10-15T02:38:25.593Z,12.78
2017-10-15T02:39:25.592Z,12.87
2017-10-15T02:40:25.595Z,12.82
2017-10-15T02:41:25.601Z,12.82
2017-10-15T02:42:25.602Z,12.85
2017-10-15T02:43:25.619Z,12.85
2017-10-15T02:44:25.610Z,12.90
2017-10-15T02:45:25.609Z,12.85
2017-10-15T02:46:25.621Z,12.88
2017-10-15T02:47:25.618Z,12.88
2017-10-15T02:48:25.624Z,12.93
2017-10-15T02:49:25.627Z,12.88
2017-10-15T02:50:25.634Z,12.93
2017-10-15T02:51:25.633Z,12.79
2017-10-15T02:52:25.635Z,12.88
2017-10-15T02:53:25.642Z,12.80
2017-10-15T02:54:25.643Z,12.87
2017-10-15T02:55:25.655Z,12.83
2017-10-15T02:56:25.652Z,12.88
2017-10-15T02:57:25.661Z,12.93
2017-10-15T02:58:25.659Z,12.80
2017-10-15T02:59:25.663Z,12.93
2017-10-15T03:00:25.670Z,12.88
2017-10-15T03:01:25.669Z,12.88
2017-10-15T03:02:25.674Z,12.88
2017-10-15T03:03:25.676Z,12.87
2017-10-15T03:04:25.687Z,12.87
2017-10-15T03:05:25.682Z,12.88
2017-10-15T03:06:25.686Z,12.87
2017-10-15T03:07:25.694Z,12.93
2017-10-15T03:08:25.693Z,12.96
2017-10-15T03:09:25.694Z,12.97
2017-10-15T03:10:25.701Z,12.96
2017-10-15T03:11:25.708Z,12.93
2017-10-15T03:12:25.703Z,12.91
2017-10-15T03:13:25.714Z,12.91
2017-10-15T03:14:25.713Z,12.91
2017-10-15T03:15:25.715Z,12.93
2017-10-15T03:16:25.715Z,12.90
2017-10-15T03:17:25.722Z,12.97
2017-10-15T03:18:25.734Z,13.01
2017-10-15T03:19:25.731Z,12.98
2017-10-15T03:20:25.742Z,12.97
2017-10-15T03:21:25.741Z,13.03
2017-10-15T03:22:25.742Z,12.98
2017-10-15T03:23:25.742Z,13.03
2017-10-15T03:24:25.747Z,13.01
2017-10-15T03:25:25.753Z,13.06
2017-10-15T03:26:25.765Z,13.06
2017-10-15T03:27:25.761Z,13.03
2017-10-15T03:28:25.767Z,13.03
2017-10-15T03:29:25.771Z,12.93
2017-10-15T03:30:25.770Z,13.01
2017-10-15T03:31:25.772Z,13.01
2017-10-15T03:32:25.778Z,12.88
2017-10-15T03:33:25.785Z,12.93
2017-10-15T03:34:25.786Z,12.93
2017-10-15T03:35:25.788Z,12.91
2017-10-15T03:36:25.794Z,12.88
2017-10-15T03:37:25.793Z,12.91
2017-10-15T03:38:25.816Z,12.93
2017-10-15T03:39:25.804Z,12.80
2017-10-15T03:40:25.803Z,12.93
2017-10-15T03:41:25.810Z,12.87
2017-10-15T03:42:25.811Z,12.93
2017-10-15T03:43:25.821Z,12.87
2017-10-15T03:44:25.820Z,12.91
2017-10-15T03:45:25.821Z,12.90
2017-10-15T03:46:25.835Z,12.91
2017-10-15T03:47:25.827Z,12.88
2017-10-15T03:48:25.834Z,12.94
2017-10-15T03:49:25.836Z,12.93
2017-10-15T03:50:25.842Z,12.87
2017-10-15T03:51:25.838Z,12.91
2017-10-15T03:52:25.848Z,12.96
2017-10-15T03:53:25.848Z,12.90
2017-10-15T03:54:25.857Z,12.88
2017-10-15T03:55:25.861Z,12.88
2017-10-15T03:56:25.857Z,12.87
2017-10-15T03:57:25.862Z,12.97
2017-10-15T03:58:25.870Z,12.87
2017-10-15T03:59:25.869Z,12.91
2017-10-15T04:00:28.370Z,12.94
2017-10-15T04:01:25.878Z,12.87
2017-10-15T04:02:25.882Z,12.88
2017-10-15T04:03:25.883Z,12.85
2017-10-15T04:04:25.888Z,12.88
2017-10-15T04:05:25.893Z,12.93
2017-10-15T04:06:25.891Z,12.93
2017-10-15T04:07:25.897Z,12.88
2017-10-15T04:08:25.901Z,12.88
2017-10-15T04:09:26.722Z,12.91
2017-10-15T04:10:26.292Z,12.90
2017-10-15T04:11:25.933Z,12.91
2017-10-15T04:12:25.911Z,12.90
2017-10-15T04:13:25.921Z,12.93
2017-10-15T04:14:25.925Z,12.90
2017-10-15T04:15:25.929Z,12.93
2017-10-15T04:16:25.930Z,12.91
2017-10-15T04:17:25.933Z,12.96
2017-10-15T04:18:25.935Z,12.88
2017-10-15T04:19:25.941Z,12.88
2017-10-15T04:20:25.947Z,12.91
2017-10-15T04:21:25.946Z,12.96
2017-10-15T04:22:25.948Z,12.96
2017-10-15T04:23:25.958Z,12.96
2017-10-15T04:24:25.963Z,12.91
2017-10-15T04:25:25.957Z,12.91
2017-10-15T04:26:25.993Z,12.94
2017-10-15T04:27:25.971Z,12.94
2017-10-15T04:28:25.971Z,12.96
2017-10-15T04:29:26.832Z,12.96
2017-10-15T04:30:28.613Z,12.90
2017-10-15T04:31:25.985Z,12.94
2017-10-15T04:32:25.988Z,12.88
2017-10-15T04:33:25.994Z,12.91
2017-10-15T04:34:25.992Z,12.96
2017-10-15T04:35:25.992Z,12.87
2017-10-15T04:36:26.000Z,12.88
2017-10-15T04:37:26.003Z,12.91
2017-10-15T04:38:26.013Z,12.83
2017-10-15T04:39:26.012Z,12.94
2017-10-15T04:40:26.014Z,12.96
2017-10-15T04:41:26.703Z,12.93
2017-10-15T04:42:26.019Z,12.97
2017-10-15T04:43:26.027Z,12.98
2017-10-15T04:44:26.032Z,12.91
2017-10-15T04:45:26.028Z,12.93
2017-10-15T04:46:26.038Z,12.97
2017-10-15T04:47:26.037Z,12.93
2017-10-15T04:48:26.048Z,12.91
2017-10-15T04:49:26.047Z,12.98
2017-10-15T04:50:26.133Z,12.93
2017-10-15T04:51:26.055Z,13.00
2017-10-15T04:52:26.121Z,12.91
2017-10-15T04:53:26.062Z,12.96
2017-10-15T04:54:26.064Z,13.00
2017-10-15T04:55:26.068Z,12.93
2017-10-15T04:56:26.072Z,12.90
2017-10-15T04:57:26.071Z,12.93
2017-10-15T04:58:26.079Z,12.97
2017-10-15T04:59:26.081Z,12.91
2017-10-15T05:00:26.083Z,13.05
2017-10-15T05:01:26.088Z,13.01
2017-10-15T05:02:26.093Z,12.98
2017-10-15T05:03:26.098Z,13.03
2017-10-15T05:04:26.096Z,13.09
2017-10-15T05:05:26.103Z,13.03
2017-10-15T05:06:26.104Z,12.98
2017-10-15T05:07:26.122Z,13.03
2017-10-15T05:08:26.111Z,13.01
2017-10-15T05:09:26.120Z,13.01
2017-10-15T05:10:26.131Z,13.06
2017-10-15T05:11:26.123Z,13.09
2017-10-15T05:12:26.135Z,13.08
2017-10-15T05:13:26.134Z,13.03
2017-10-15T05:14:26.142Z,12.97
2017-10-15T05:15:26.137Z,13.06
2017-10-15T05:16:26.142Z,13.06
2017-10-15T05:17:26.146Z,13.00
2017-10-15T05:18:26.158Z,12.98
2017-10-15T05:19:26.152Z,13.06
2017-10-15T05:20:26.160Z,13.05
2017-10-15T05:21:26.161Z,12.97
2017-10-15T05:22:26.167Z,13.05
2017-10-15T05:23:26.173Z,12.98
2017-10-15T05:24:26.175Z,13.03
2017-10-15T05:25:26.173Z,13.01
2017-10-15T05:26:26.209Z,13.06
2017-10-15T05:27:26.181Z,13.15
2017-10-15T05:28:26.180Z,13.01
2017-10-15T05:29:26.188Z,13.11
2017-10-15T05:30:26.192Z,13.11
2017-10-15T05:31:26.198Z,13.08
2017-10-15T05:32:26.202Z,13.12
2017-10-15T05:33:26.203Z,13.15
2017-10-15T05:34:26.214Z,13.13
2017-10-15T05:35:26.211Z,13.15
2017-10-15T05:36:26.214Z,13.18
2017-10-15T05:37:26.224Z,13.06
2017-10-15T05:38:26.220Z,13.09
2017-10-15T05:39:26.229Z,13.21
2017-10-15T05:40:26.228Z,13.18
2017-10-15T05:41:26.232Z,13.11
2017-10-15T05:42:26.239Z,13.13
2017-10-15T05:43:26.240Z,13.09
2017-10-15T05:44:26.244Z,13.11
2017-10-15T05:45:26.245Z,13.16
2017-10-15T05:46:26.254Z,13.09
2017-10-15T05:47:26.256Z,13.15
2017-10-15T05:48:26.262Z,13.11
2017-10-15T05:49:26.267Z,13.16
2017-10-15T05:50:26.276Z,13.13
2017-10-15T05:51:26.271Z,13.15
2017-10-15T05:52:26.272Z,13.16
2017-10-15T05:53:26.282Z,13.06
2017-10-15T05:54:26.283Z,13.09
2017-10-15T05:55:26.283Z,13.12
2017-10-15T05:56:26.289Z,13.13
2017-10-15T05:57:26.299Z,13.09
2017-10-15T05:58:26.293Z,13.13
2017-10-15T05:59:26.303Z,13.09
2017-10-15T06:00:26.304Z,13.15
2017-10-15T06:01:26.305Z,13.13
2017-10-15T06:02:26.310Z,13.18
2017-10-15T06:03:26.308Z,13.09
2017-10-15T06:04:26.322Z,13.18
2017-10-15T06:05:26.322Z,13.16
2017-10-15T06:06:26.330Z,13.16
2017-10-15T06:07:26.330Z,13.21
2017-10-15T06:08:26.333Z,13.18
2017-10-15T06:09:26.332Z,13.19
2017-10-15T06:10:26.338Z,13.16
2017-10-15T06:11:26.345Z,13.21
2017-10-15T06:12:26.342Z,13.09
2017-10-15T06:13:26.346Z,13.21
2017-10-15T06:14:26.352Z,13.27
2017-10-15T06:15:26.353Z,13.29
2017-10-15T06:16:26.364Z,13.24
2017-10-15T06:17:26.368Z,13.16
2017-10-15T06:18:26.375Z,13.27
2017-10-15T06:19:26.372Z,13.22
2017-10-15T06:20:26.376Z,13.24
2017-10-15T06:21:26.381Z,13.26
2017-10-15T06:22:26.380Z,13.24
2017-10-15T06:23:26.383Z,13.21
2017-10-15T06:24:26.395Z,13.21
2017-10-15T06:25:26.393Z,13.15
2017-10-15T06:26:26.396Z,13.16
2017-10-15T06:27:26.402Z,13.13
2017-10-15T06:28:26.403Z,13.24
2017-10-15T06:29:26.406Z,13.22
2017-10-15T06:30:26.467Z,13.09
2017-10-15T06:31:26.419Z,13.12
2017-10-15T06:32:26.421Z,13.11
2017-10-15T06:33:26.421Z,13.15
2017-10-15T06:34:26.431Z,13.21
2017-10-15T06:35:26.431Z,13.11
2017-10-15T06:36:26.433Z,13.15
2017-10-15T06:37:26.435Z,13.12
2017-10-15T06:38:26.439Z,13.09
2017-10-15T06:39:26.448Z,13.18
2017-10-15T06:40:26.447Z,13.12
2017-10-15T06:41:26.459Z,13.08
2017-10-15T06:42:26.457Z,13.19
2017-10-15T06:43:26.461Z,13.12
2017-10-15T06:44:26.471Z,13.15
2017-10-15T06:45:26.474Z,13.15
2017-10-15T06:46:26.471Z,13.21
2017-10-15T06:47:26.476Z,13.05
2017-10-15T06:48:26.478Z,13.21
2017-10-15T06:49:26.478Z,13.19
2017-10-15T06:50:26.490Z,13.18
2017-10-15T06:51:26.488Z,13.12
2017-10-15T06:52:26.494Z,13.19
2017-10-15T06:53:26.498Z,13.16
2017-10-15T06:54:26.505Z,13.21
2017-10-15T06:55:26.508Z,13.13
2017-10-15T06:56:26.506Z,13.11
2017-10-15T06:57:26.511Z,13.15
2017-10-15T06:58:26.513Z,13.19
2017-10-15T06:59:26.527Z,13.11
2017-10-15T07:00:26.522Z,13.09
2017-10-15T07:01:26.525Z,13.12
2017-10-15T07:02:26.536Z,13.15
2017-10-15T07:03:26.531Z,13.18
2017-10-15T07:04:26.544Z,13.13
2017-10-15T07:05:26.543Z,13.15
2017-10-15T07:06:26.544Z,13.15
2017-10-15T07:07:26.548Z,13.19
2017-10-15T07:08:26.548Z,13.16
2017-10-15T07:09:26.561Z,13.15
2017-10-15T07:10:26.563Z,13.11
2017-10-15T07:11:26.564Z,13.11
2017-10-15T07:12:26.565Z,13.13
2017-10-15T07:13:26.568Z,13.01
2017-10-15T07:14:30.481Z,13.13
2017-10-15T07:15:26.573Z,13.09
2017-10-15T07:16:26.580Z,13.18
2017-10-15T07:17:26.590Z,13.13
2017-10-15T07:18:26.588Z,13.06
2017-10-15T07:19:26.594Z,13.15
2017-10-15T07:20:26.594Z,13.15
2017-10-15T07:21:26.598Z,13.18
2017-10-15T07:22:26.604Z,13.13
2017-10-15T07:23:26.605Z,13.16
2017-10-15T07:24:26.615Z,13.16
2017-10-15T07:25:26.615Z,13.19
2017-10-15T07:26:26.613Z,13.21
2017-10-15T07:27:26.622Z,13.21
2017-10-15T07:28:26.624Z,13.18
2017-10-15T07:29:26.629Z,13.22
2017-10-15T07:30:26.637Z,13.27
2017-10-15T07:31:26.633Z,13.26
2017-10-15T07:32:26.633Z,13.27
2017-10-15T07:33:26.644Z,13.29
2017-10-15T07:34:26.643Z,13.26
2017-10-15T07:35:26.647Z,13.31
2017-10-15T07:36:26.654Z,13.24
2017-10-15T07:37:26.661Z,13.33
2017-10-15T07:38:26.664Z,13.31
2017-10-15T07:39:26.662Z,13.33
2017-10-15T07:40:26.674Z,13.30
2017-10-15T07:41:26.670Z,13.31
2017-10-15T07:42:26.673Z,13.37
2017-10-15T07:43:26.680Z,13.27
2017-10-15T07:44:26.689Z,13.35
2017-10-15T07:45:26.694Z,13.31
2017-10-15T07:46:26.695Z,13.37
2017-10-15T07:47:26.693Z,13.39
2017-10-15T07:48:26.699Z,13.41
2017-10-15T07:49:26.704Z,13.45
2017-10-15T07:50:26.708Z,13.41
2017-10-15T07:51:26.714Z,13.47
2017-10-15T07:52:26.714Z,13.52
2017-10-15T07:53:26.730Z,13.39
2017-10-15T07:54:26.721Z,13.45
2017-10-15T07:55:26.734Z,13.57
2017-10-15T07:56:26.731Z,13.50
2017-10-15T07:57:26.730Z,13.53
2017-10-15T07:58:26.739Z,13.56
2017-10-15T07:59:26.739Z,13.59
2017-10-15T08:00:26.745Z,13.64
2017-10-15T08:01:26.747Z,13.60
2017-10-15T08:02:26.757Z,13.65
2017-10-15T08:03:26.755Z,13.65
2017-10-15T08:04:26.761Z,13.75
2017-10-15T08:05:26.763Z,13.70
2017-10-15T08:06:26.765Z,13.72
2017-10-15T08:07:26.778Z,13.70
2017-10-15T08:08:26.777Z,13.80
2017-10-15T08:09:26.778Z,13.83
2017-10-15T08:10:26.786Z,13.88
2017-10-15T08:11:26.787Z,13.86
2017-10-15T08:12:26.788Z,13.93
2017-10-15T08:13:26.794Z,14.04
2017-10-15T08:14:26.799Z,14.01
2017-10-15T08:15:26.804Z,14.00
2017-10-15T08:16:26.808Z,14.07
2017-10-15T08:17:26.811Z,14.04
2017-10-15T08:18:26.816Z,14.14
2017-10-15T08:19:26.824Z,14.14
2017-10-15T08:20:26.823Z,14.15
2017-10-15T08:21:26.830Z,14.13
2017-10-15T08:22:26.833Z,14.23
2017-10-15T08:23:26.833Z,14.25
2017-10-15T08:24:26.841Z,14.22
2017-10-15T08:25:26.840Z,14.20
2017-10-15T08:26:26.849Z,14.22
2017-10-15T08:27:26.855Z,14.23
2017-10-15T08:28:26.856Z,14.23
2017-10-15T08:29:26.862Z,14.29
2017-10-15T08:30:26.869Z,14.25
2017-10-15T08:31:26.866Z,14.23
2017-10-15T08:32:26.873Z,14.29
2017-10-15T08:33:26.880Z,14.33
2017-10-15T08:34:26.884Z,14.36
2017-10-15T08:35:26.883Z,14.36
2017-10-15T08:36:26.895Z,14.38
2017-10-15T08:37:26.895Z,14.32
2017-10-15T08:38:26.895Z,14.36
2017-10-15T08:39:26.910Z,14.38
2017-10-15T08:40:26.904Z,14.41
2017-10-15T08:41:26.914Z,14.38
2017-10-15T08:42:26.915Z,14.56
2017-10-15T08:43:26.916Z,14.55
2017-10-15T08:44:26.925Z,14.51
2017-10-15T08:45:26.933Z,14.61
2017-10-15T08:46:26.935Z,14.69
2017-10-15T08:47:26.935Z,14.61
2017-10-15T08:48:26.940Z,14.68
2017-10-15T08:49:26.953Z,14.77
2017-10-15T08:50:26.950Z,14.78
2017-10-15T08:51:26.955Z,14.78
2017-10-15T08:52:26.957Z,14.77
2017-10-15T08:53:26.965Z,14.79
2017-10-15T08:54:26.975Z,14.84
2017-10-15T08:55:26.974Z,14.93
2017-10-15T08:56:26.978Z,14.87
2017-10-15T08:57:26.988Z,14.91
2017-10-15T08:58:26.991Z,14.95
2017-10-15T08:59:26.991Z,14.91
2017-10-15T09:00:27.000Z,15.06
2017-10-15T09:01:26.999Z,15.12
2017-10-15T09:02:27.010Z,15.12
2017-10-15T09:03:27.007Z,15.09
2017-10-15T09:04:27.013Z,15.14
2017-10-15T09:05:27.016Z,15.17
2017-10-15T09:06:27.025Z,15.12
2017-10-15T09:07:27.033Z,15.21
2017-10-15T09:08:27.039Z,15.12
2017-10-15T09:09:27.036Z,15.25
2017-10-15T09:10:27.048Z,15.22
2017-10-15T09:11:27.046Z,15.36
2017-10-15T09:12:27.059Z,15.24
2017-10-15T09:13:27.061Z,15.40
2017-10-15T09:14:27.064Z,15.40
2017-10-15T09:15:27.073Z,15.40
2017-10-15T09:16:27.075Z,15.40
2017-10-15T09:17:27.075Z,15.50
2017-10-15T09:18:27.083Z,15.43
2017-10-15T09:19:27.094Z,15.37
2017-10-15T09:20:27.093Z,15.52
2017-10-15T09:21:27.103Z,15.52
2017-10-15T09:22:27.098Z,15.48
2017-10-15T09:23:27.113Z,15.51
2017-10-15T09:24:27.113Z,15.52
2017-10-15T09:25:27.115Z,15.48
2017-10-15T09:26:27.126Z,15.57
2017-10-15T09:27:27.124Z,15.52
2017-10-15T09:28:27.138Z,15.60
2017-10-15T09:29:27.133Z,15.61
2017-10-15T09:30:27.144Z,15.69
2017-10-15T09:31:27.173Z,15.62
2017-10-15T09:32:27.151Z,15.79
2017-10-15T09:33:27.158Z,15.69
2017-10-15T09:34:27.160Z,15.73
2017-10-15T09:35:27.172Z,15.82
2017-10-15T09:36:27.178Z,15.87
2017-10-15T09:37:27.177Z,15.90
2017-10-15T09:38:27.184Z,15.91
2017-10-15T09:39:27.184Z,16.02
2017-10-15T09:40:27.193Z,16.06
2017-10-15T09:41:27.197Z,16.09
2017-10-15T09:42:27.208Z,16.10
2017-10-15T09:43:27.208Z,16.17
2017-10-15T09:44:27.220Z,16.26
2017-10-15T09:45:27.229Z,16.28
2017-10-15T09:46:27.225Z,16.32
2017-10-15T09:47:27.234Z,16.26
2017-10-15T09:48:27.231Z,16.26
2017-10-15T09:49:27.241Z,16.29
2017-10-15T09:50:27.246Z,16.32
2017-10-15T09:51:27.251Z,16.44
2017-10-15T09:52:27.256Z,16.44
2017-10-15T09:53:27.271Z,16.49
2017-10-15T09:54:27.274Z,16.56
2017-10-15T09:55:27.274Z,16.57
2017-10-15T09:56:27.281Z,16.51
2017-10-15T09:57:27.281Z,16.57
2017-10-15T09:58:27.294Z,16.57
2017-10-15T09:59:27.293Z,16.62
2017-10-15T10:00:27.298Z,16.68
2017-10-15T10:01:27.310Z,16.65
2017-10-15T10:02:27.315Z,16.64
2017-10-15T10:03:27.323Z,16.71
2017-10-15T10:04:27.327Z,16.83
2017-10-15T10:05:27.339Z,16.83
2017-10-15T10:06:27.334Z,16.87
2017-10-15T10:07:27.342Z,16.90
2017-10-15T10:08:27.352Z,16.96
2017-10-15T10:09:27.354Z,16.93
2017-10-15T10:10:27.365Z,17.01
2017-10-15T10:11:27.364Z,17.02
2017-10-15T10:12:27.376Z,17.11
2017-10-15T10:13:27.378Z,17.11
2017-10-15T10:14:27.383Z,17.09
2017-10-15T10:15:27.386Z,17.19
2017-10-15T10:16:27.392Z,17.23
2017-10-15T10:17:27.408Z,17.23
2017-10-15T10:18:27.404Z,17.29
2017-10-15T10:19:27.412Z,17.31
2017-10-15T10:20:27.423Z,17.41
2017-10-15T10:21:27.425Z,17.37
2017-10-15T10:22:27.433Z,17.31
2017-10-15T10:23:27.437Z,17.54
2017-10-15T10:24:27.445Z,17.48
2017-10-15T10:25:27.450Z,17.41
2017-10-15T10:26:27.454Z,17.41
2017-10-15T10:27:27.459Z,17.45
2017-10-15T10:28:27.477Z,17.49
2017-10-15T10:29:27.476Z,17.54
2017-10-15T10:30:27.483Z,17.64
2017-10-15T10:31:27.487Z,17.67
2017-10-15T10:32:27.492Z,17.60
2017-10-15T10:33:27.499Z,17.67
2017-10-15T10:34:27.506Z,17.70
2017-10-15T10:35:27.510Z,17.76
2017-10-15T10:36:27.579Z,17.80
2017-10-15T10:37:27.525Z,17.82
2017-10-15T10:38:27.530Z,17.85
2017-10-15T10:39:27.540Z,17.86
2017-10-15T10:40:27.546Z,17.98
2017-10-15T10:41:27.549Z,17.94
2017-10-15T10:42:27.563Z,18.04
2017-10-15T10:43:27.564Z,18.05
2017-10-15T10:44:27.576Z,18.12
2017-10-15T10:45:27.575Z,18.09
2017-10-15T10:46:27.582Z,18.15
2017-10-15T10:47:27.595Z,18.22
2017-10-15T10:48:27.594Z,18.18
2017-10-15T10:49:27.610Z,18.16
2017-10-15T10:50:27.609Z,18.25
2017-10-15T10:51:27.619Z,18.26
2017-10-15T10:52:27.629Z,18.35
2017-10-15T10:53:27.633Z,18.28
2017-10-15T10:54:27.632Z,18.46
2017-10-15T10:55:27.640Z,18.49
2017-10-15T10:56:27.651Z,18.50
2017-10-15T10:57:27.659Z,18.59
2017-10-15T10:58:27.669Z,18.60
2017-10-15T10:59:27.675Z,18.62
2017-10-15T11:00:28.331Z,18.66
2017-10-15T11:01:27.689Z,18.68
2017-10-15T11:02:27.688Z,18.73
2017-10-15T11:03:27.694Z,18.68
2017-10-15T11:04:27.711Z,18.68
2017-10-15T11:05:27.713Z,18.78
2017-10-15T11:06:27.724Z,18.85
2017-10-15T11:07:27.804Z,18.81
2017-10-15T11:08:27.794Z,18.81
2017-10-15T11:09:28.370Z,18.88
2017-10-15T11:10:27.748Z,18.95
2017-10-15T11:11:28.163Z,19.00
2017-10-15T11:12:27.764Z,18.98
2017-10-15T11:13:27.771Z,18.98
2017-10-15T11:14:27.777Z,18.96
2017-10-15T11:15:27.782Z,19.11
2017-10-15T11:16:27.791Z,19.05
2017-10-15T11:17:27.799Z,19.19
2017-10-15T11:18:27.812Z,19.12
2017-10-15T11:19:27.814Z,19.24
2017-10-15T11:20:27.829Z,19.26
2017-10-15T11:21:27.833Z,19.26
2017-10-15T11:22:27.834Z,19.19
2017-10-15T11:23:27.841Z,19.23
2017-10-15T11:24:27.850Z,19.18
2017-10-15T11:25:27.860Z,19.31
2017-10-15T11:26:27.865Z,19.39
2017-10-15T11:27:27.873Z,19.39
2017-10-15T11:28:27.883Z,19.45
2017-10-15T11:29:27.885Z,19.37
2017-10-15T11:30:27.895Z,19.42
2017-10-15T11:31:27.913Z,19.46
2017-10-15T11:32:27.923Z,19.51
2017-10-15T11:33:27.914Z,19.45
2017-10-15T11:34:27.929Z,19.59
2017-10-15T11:35:27.937Z,19.63
2017-10-15T11:36:27.936Z,19.63
2017-10-15T11:37:27.951Z,19.59
2017-10-15T11:38:27.978Z,19.63
2017-10-15T11:39:27.963Z,19.69
2017-10-15T11:40:27.972Z,19.67
2017-10-15T11:41:27.986Z,19.64
2017-10-15T11:42:27.985Z,19.73
2017-10-15T11:43:28.003Z,19.67
2017-10-15T11:44:28.005Z,19.71
2017-10-15T11:45:28.015Z,19.84
2017-10-15T11:46:28.016Z,19.82
2017-10-15T11:47:28.022Z,19.88
2017-10-15T11:48:28.031Z,19.88
2017-10-15T11:49:28.045Z,19.85
2017-10-15T11:50:28.043Z,19.88
2017-10-15T11:51:28.055Z,19.96
2017-10-15T11:52:28.067Z,20.06
2017-10-15T11:53:28.071Z,20.03
2017-10-15T11:54:28.086Z,20.06
2017-10-15T11:55:28.089Z,20.06
2017-10-15T11:56:28.097Z,20.07
2017-10-15T11:57:28.101Z,20.15
2017-10-15T11:58:28.111Z,20.10
2017-10-15T11:59:28.116Z,20.14
2017-10-15T12:00:28.126Z,20.28
2017-10-15T12:01:28.135Z,20.25
2017-10-15T12:02:28.144Z,20.31
2017-10-15T12:03:28.154Z,20.31
2017-10-15T12:04:28.162Z,20.29
2017-10-15T12:05:28.170Z,20.33
2017-10-15T12:06:28.173Z,20.33
2017-10-15T12:07:28.203Z,20.37
2017-10-15T12:08:28.197Z,20.39
2017-10-15T12:09:28.203Z,20.31
2017-10-15T12:10:28.211Z,20.43
2017-10-15T12:11:28.220Z,20.44
2017-10-15T12:12:28.225Z,20.43
2017-10-15T12:13:28.234Z,20.43
2017-10-15T12:14:28.238Z,20.36
2017-10-15T12:15:28.245Z,20.43
2017-10-15T12:16:28.257Z,20.47
2017-10-15T12:17:28.266Z,20.40
2017-10-15T12:18:28.271Z,20.50
2017-10-15T12:19:28.280Z,20.36
2017-10-15T12:20:28.295Z,20.47
2017-10-15T12:21:28.302Z,20.43
2017-10-15T12:22:28.305Z,20.52
2017-10-15T12:23:28.315Z,20.52
2017-10-15T12:24:28.321Z,20.48
2017-10-15T12:25:28.328Z,20.48
2017-10-15T12:26:28.339Z,20.50
2017-10-15T12:27:28.349Z,20.52
2017-10-15T12:28:28.364Z,20.50
2017-10-15T12:29:28.372Z,20.56
2017-10-15T12:30:28.376Z,20.53
2017-10-15T12:31:28.390Z,20.53
2017-10-15T12:32:28.395Z,20.48
2017-10-15T12:33:28.985Z,20.52
2017-10-15T12:34:47.983Z,20.50
2017-10-15T12:35:28.781Z,20.62
2017-10-15T12:36:28.683Z,20.57
2017-10-15T12:37:29.076Z,20.48
2017-10-15T12:38:28.902Z,20.48
2017-10-15T12:39:28.569Z,20.48
2017-10-15T12:40:28.463Z,20.53
2017-10-15T12:41:28.466Z,20.47
2017-10-15T12:42:28.475Z,20.48
2017-10-15T12:43:28.485Z,20.47
2017-10-15T12:44:28.494Z,20.44
2017-10-15T12:45:28.495Z,20.47
2017-10-15T12:46:28.504Z,20.47
2017-10-15T12:47:28.515Z,20.47
2017-10-15T12:48:28.537Z,20.39
2017-10-15T12:49:28.530Z,20.41
2017-10-15T12:50:28.537Z,20.52
2017-10-15T12:51:28.543Z,20.44
2017-10-15T12:52:28.552Z,20.43